createdAt,value
2022-12-08T00:01:10.666Z,93.31
2022-12-08T00:02:44.394Z,93.15
2022-12-08T00:04:16.269Z,93.26
2022-12-08T00:06:08.103Z,93.93
2022-12-08T00:07:58.273Z,94.74
2022-12-08T00:09:37.910Z,94.11
2022-12-08T00:11:12.087Z,95.40
2022-12-08T00:12:43.785Z,95.41
2022-12-08T00:14:15.414Z,94.92
2022-12-08T00:15:47.007Z,94.90
2022-12-08T00:17:18.603Z,94.46
2022-12-08T00:18:50.211Z,94.56
2022-12-08T00:20:21.915Z,93.83
2022-12-08T00:21:55.004Z,93.81
2022-12-08T00:23:26.622Z,94.08
2022-12-08T00:24:58.344Z,94.23
2022-12-08T00:26:29.919Z,94.93
2022-12-08T00:28:01.562Z,94.11
2022-12-08T00:29:33.205Z,94.33
2022-12-08T00:31:07.643Z,94.18
2022-12-08T00:32:39.258Z,94.25
2022-12-08T00:34:11.885Z,93.59
2022-12-08T00:35:43.559Z,93.95
2022-12-08T00:37:16.576Z,94.08
2022-12-08T00:38:48.621Z,94.29
2022-12-08T00:40:20.214Z,94.51
2022-12-08T00:42:10.998Z,94.61
2022-12-08T00:43:42.641Z,94.47
2022-12-08T00:45:14.397Z,94.49
2022-12-08T00:46:46.215Z,93.76
2022-12-08T00:48:17.779Z,94.02
2022-12-08T00:49:49.328Z,93.95
2022-12-08T00:51:20.931Z,93.52
2022-12-08T00:52:53.891Z,93.29
2022-12-08T00:54:25.504Z,93.66
2022-12-08T00:55:57.131Z,93.54
2022-12-08T00:57:28.812Z,93.81
2022-12-08T00:59:00.456Z,94.18
2022-12-08T01:00:32.106Z,93.68
2022-12-08T01:02:03.772Z,93.63
2022-12-08T01:03:35.472Z,93.75
2022-12-08T01:05:07.831Z,93.75
2022-12-08T01:06:39.604Z,93.61
2022-12-08T01:08:12.583Z,93.17
2022-12-08T01:09:44.249Z,93.04
2022-12-08T01:11:16.967Z,93.36
2022-12-08T01:12:48.576Z,92.76
2022-12-08T01:14:20.280Z,93.60
2022-12-08T01:15:51.900Z,92.97
2022-12-08T01:17:23.522Z,93.43
2022-12-08T01:18:55.269Z,93.18
2022-12-08T01:20:26.901Z,92.94
2022-12-08T01:21:59.279Z,93.42
2022-12-08T01:23:32.253Z,93.15
2022-12-08T01:25:04.350Z,93.16
2022-12-08T01:26:35.994Z,92.87
2022-12-08T01:28:07.630Z,92.70
2022-12-08T01:29:39.266Z,92.71
2022-12-08T01:31:11.702Z,93.19
2022-12-08T01:32:43.618Z,94.18
2022-12-08T01:34:15.362Z,93.70
2022-12-08T01:35:47.007Z,93.31
2022-12-08T01:37:18.626Z,92.87
2022-12-08T01:38:51.672Z,93.03
2022-12-08T01:40:23.292Z,93.36
2022-12-08T01:41:54.939Z,93.00
2022-12-08T01:43:41.447Z,93.13
2022-12-08T01:45:13.951Z,92.99
2022-12-08T01:46:47.332Z,91.99
2022-12-08T01:48:21.093Z,92.28
2022-12-08T01:49:52.768Z,93.13
2022-12-08T01:51:24.410Z,93.72
2022-12-08T01:52:57.510Z,93.55
2022-12-08T01:54:31.808Z,93.46
2022-12-08T01:56:06.346Z,92.83
2022-12-08T01:57:40.969Z,93.06
2022-12-08T01:59:12.633Z,92.62
2022-12-08T02:00:44.280Z,92.75
2022-12-08T02:02:15.949Z,92.92
2022-12-08T02:03:48.414Z,93.08
2022-12-08T02:05:20.896Z,93.13
2022-12-08T02:06:52.494Z,93.19
2022-12-08T02:08:24.233Z,92.96
2022-12-08T02:09:57.278Z,93.16
2022-12-08T02:11:29.189Z,92.41
2022-12-08T02:13:00.791Z,92.71
2022-12-08T02:14:32.407Z,92.68
2022-12-08T02:16:07.108Z,92.25
2022-12-08T02:17:47.850Z,92.50
2022-12-08T02:19:49.721Z,92.43
2022-12-08T02:21:23.147Z,93.11
2022-12-08T02:22:57.791Z,93.14
2022-12-08T02:24:32.716Z,93.17
2022-12-08T02:26:49.356Z,93.23
2022-12-08T02:28:35.630Z,93.48
2022-12-08T02:30:15.577Z,93.25
2022-12-08T02:31:52.588Z,93.20
2022-12-08T02:34:11.715Z,92.74
2022-12-08T02:35:47.993Z,93.04
2022-12-08T02:37:23.067Z,93.41
2022-12-08T02:38:58.876Z,92.70
2022-12-08T02:40:32.460Z,93.02
2022-12-08T02:42:11.005Z,93.09
2022-12-08T02:43:43.875Z,93.50
2022-12-08T02:45:17.400Z,94.00
2022-12-08T02:46:52.385Z,93.87
2022-12-08T02:48:24.010Z,93.47
2022-12-08T02:49:55.809Z,93.52
2022-12-08T02:51:28.917Z,93.54
2022-12-08T02:53:02.117Z,93.80
2022-12-08T02:54:33.752Z,93.15
2022-12-08T02:56:11.500Z,93.61
2022-12-08T02:57:51.708Z,93.90
2022-12-08T02:59:28.069Z,93.83
2022-12-08T03:01:09.226Z,94.05
2022-12-08T03:02:48.396Z,93.88
2022-12-08T03:04:22.674Z,93.30
2022-12-08T03:05:57.977Z,93.43
2022-12-08T03:07:33.017Z,93.55
2022-12-08T03:09:07.282Z,93.48
2022-12-08T03:10:41.442Z,93.58
2022-12-08T03:12:14.295Z,93.74
2022-12-08T03:13:47.250Z,93.58
2022-12-08T03:15:19.580Z,93.35
2022-12-08T03:16:53.705Z,92.76
2022-12-08T03:18:27.039Z,92.93
2022-12-08T03:19:59.113Z,93.71
2022-12-08T03:21:30.735Z,93.75
2022-12-08T03:23:05.456Z,93.64
2022-12-08T03:24:37.858Z,94.18
2022-12-08T03:26:12.548Z,93.08
2022-12-08T03:27:44.154Z,93.09
2022-12-08T03:29:15.797Z,92.74
2022-12-08T03:30:47.720Z,92.82
2022-12-08T03:32:22.453Z,93.19
2022-12-08T03:33:54.703Z,93.94
2022-12-08T03:35:28.040Z,93.48
2022-12-08T03:37:00.489Z,94.13
2022-12-08T03:38:38.711Z,93.41
2022-12-08T03:40:11.933Z,92.68
2022-12-08T03:41:43.570Z,93.70
2022-12-08T03:43:15.191Z,93.47
2022-12-08T03:44:46.790Z,94.04
2022-12-08T03:46:18.758Z,93.96
2022-12-08T03:47:50.703Z,93.79
2022-12-08T03:49:22.350Z,94.49
2022-12-08T03:50:54.134Z,93.89
2022-12-08T03:52:25.804Z,93.63
2022-12-08T03:53:58.866Z,93.59
2022-12-08T03:55:30.468Z,93.30
2022-12-08T03:57:02.132Z,94.02
2022-12-08T03:58:37.355Z,93.93
2022-12-08T04:00:12.912Z,93.96
2022-12-08T04:01:44.676Z,94.06
2022-12-08T04:03:16.353Z,93.17
2022-12-08T04:04:48.152Z,93.16
2022-12-08T04:06:19.891Z,94.00
2022-12-08T04:07:51.580Z,94.21
2022-12-08T04:09:24.883Z,94.19
2022-12-08T04:10:56.571Z,93.87
2022-12-08T04:12:28.204Z,93.61
2022-12-08T04:13:59.787Z,93.73
2022-12-08T04:15:31.383Z,93.47
2022-12-08T04:17:03.011Z,93.42
2022-12-08T04:18:35.001Z,93.13
2022-12-08T04:20:07.497Z,94.14
2022-12-08T04:21:39.283Z,93.41
2022-12-08T04:23:12.210Z,94.49
2022-12-08T04:24:45.531Z,94.29
2022-12-08T04:26:17.347Z,93.89
2022-12-08T04:27:48.932Z,94.24
2022-12-08T04:29:20.534Z,93.78
2022-12-08T04:30:52.132Z,94.01
2022-12-08T04:32:23.792Z,94.21
2022-12-08T04:33:55.401Z,94.51
2022-12-08T04:35:27.354Z,95.11
2022-12-08T04:36:58.967Z,95.15
2022-12-08T04:38:30.598Z,95.46
2022-12-08T04:40:04.362Z,94.68
2022-12-08T04:41:38.887Z,94.21
2022-12-08T04:43:10.486Z,94.14
2022-12-08T04:44:44.819Z,94.27
2022-12-08T04:46:16.528Z,94.45
2022-12-08T04:47:51.313Z,95.44
2022-12-08T04:49:25.099Z,94.78
2022-12-08T04:50:56.893Z,94.79
2022-12-08T04:52:31.475Z,94.62
2022-12-08T04:54:06.136Z,95.05
2022-12-08T04:55:52.750Z,94.65
2022-12-08T04:57:24.358Z,93.48
2022-12-08T04:58:57.023Z,94.29
2022-12-08T05:00:28.780Z,94.08
2022-12-08T05:02:03.269Z,93.52
2022-12-08T05:03:35.034Z,94.05
2022-12-08T05:05:10.388Z,94.50
2022-12-08T05:06:43.607Z,94.13
2022-12-08T05:08:15.304Z,93.96
2022-12-08T05:09:46.983Z,94.41
2022-12-08T05:11:25.003Z,94.28
2022-12-08T05:12:57.851Z,93.63
2022-12-08T05:14:31.760Z,93.23
2022-12-08T05:16:04.563Z,93.69
2022-12-08T05:17:36.212Z,93.32
2022-12-08T05:19:07.900Z,93.95
2022-12-08T05:20:39.558Z,94.17
2022-12-08T05:22:11.252Z,94.31
2022-12-08T05:23:45.711Z,93.71
2022-12-08T05:25:17.491Z,93.29
2022-12-08T05:26:50.554Z,93.37
2022-12-08T05:28:42.741Z,92.95
2022-12-08T05:30:15.279Z,93.04
2022-12-08T05:31:49.536Z,92.50
2022-12-08T05:33:21.359Z,92.68
2022-12-08T05:34:52.986Z,91.89
2022-12-08T05:36:24.595Z,92.92
2022-12-08T05:37:58.361Z,92.90
2022-12-08T05:39:32.566Z,92.79
2022-12-08T05:41:04.309Z,92.89
2022-12-08T05:42:48.802Z,92.95
2022-12-08T05:44:28.610Z,92.93
2022-12-08T05:46:03.146Z,93.02
2022-12-08T05:47:36.281Z,93.24
2022-12-08T05:49:08.188Z,92.59
2022-12-08T05:50:39.891Z,93.66
2022-12-08T05:52:11.702Z,93.57
2022-12-08T05:53:43.339Z,92.92
2022-12-08T05:55:17.893Z,93.15
2022-12-08T05:56:51.737Z,93.49
2022-12-08T05:58:26.001Z,93.57
2022-12-08T06:00:02.233Z,93.46
2022-12-08T06:01:34.206Z,93.69
2022-12-08T06:03:05.989Z,93.86
2022-12-08T06:04:40.206Z,93.98
2022-12-08T06:06:12.001Z,93.27
2022-12-08T06:07:43.801Z,92.99
2022-12-08T06:09:15.552Z,93.20
2022-12-08T06:11:02.645Z,93.68
2022-12-08T06:12:34.325Z,93.73
2022-12-08T06:14:10.253Z,93.83
2022-12-08T06:15:42.023Z,93.77
2022-12-08T06:17:13.842Z,94.21
2022-12-08T06:18:48.146Z,94.24
2022-12-08T06:20:19.841Z,93.69
2022-12-08T06:22:00.923Z,93.15
2022-12-08T06:23:32.788Z,93.81
2022-12-08T06:25:10.103Z,93.66
2022-12-08T06:26:45.072Z,93.73
2022-12-08T06:28:19.433Z,93.64
2022-12-08T06:29:54.502Z,93.27
2022-12-08T06:31:29.122Z,93.39
2022-12-08T06:33:02.893Z,92.54
2022-12-08T06:34:35.763Z,92.16
2022-12-08T06:36:07.640Z,92.91
2022-12-08T06:37:39.410Z,92.27
2022-12-08T06:39:11.275Z,92.43
2022-12-08T06:40:43.111Z,93.12
2022-12-08T06:42:33.235Z,92.78
2022-12-08T06:44:05.156Z,93.28
2022-12-08T06:45:40.647Z,93.11
2022-12-08T06:47:12.327Z,92.71
2022-12-08T06:48:43.966Z,92.81
2022-12-08T06:50:15.617Z,93.19
2022-12-08T06:51:50.121Z,92.37
2022-12-08T06:53:21.758Z,92.19
2022-12-08T06:54:53.382Z,91.71
2022-12-08T06:56:28.050Z,92.24
2022-12-08T06:57:59.683Z,93.15
2022-12-08T06:59:31.395Z,92.90
2022-12-08T07:01:08.542Z,92.76
2022-12-08T07:02:40.321Z,93.92
2022-12-08T07:04:11.992Z,92.91
2022-12-08T07:05:43.612Z,93.14
2022-12-08T07:07:15.274Z,93.47
2022-12-08T07:08:46.870Z,93.07
2022-12-08T07:10:18.617Z,92.92
2022-12-08T07:11:50.292Z,93.00
2022-12-08T07:13:21.937Z,93.50
2022-12-08T07:14:53.564Z,93.35
2022-12-08T07:16:26.720Z,93.15
2022-12-08T07:18:00.263Z,93.73
2022-12-08T07:19:32.709Z,94.51
2022-12-08T07:21:05.708Z,94.00
2022-12-08T07:22:37.376Z,93.94
2022-12-08T07:24:09.065Z,92.94
2022-12-08T07:25:40.770Z,92.86
2022-12-08T07:27:12.369Z,93.24
2022-12-08T07:28:44.229Z,93.30
2022-12-08T07:30:16.011Z,93.04
2022-12-08T07:31:49.172Z,93.96
2022-12-08T07:33:20.904Z,93.83
2022-12-08T07:34:55.594Z,93.55
2022-12-08T07:36:27.275Z,93.95
2022-12-08T07:37:58.944Z,93.54
2022-12-08T07:39:30.602Z,93.50
2022-12-08T07:41:02.263Z,93.49
2022-12-08T07:42:37.107Z,93.12
2022-12-08T07:44:08.891Z,93.62
2022-12-08T07:45:43.063Z,92.90
2022-12-08T07:47:49.653Z,92.95
2022-12-08T07:49:19.752Z,93.88
2022-12-08T07:50:51.372Z,93.37
2022-12-08T07:52:48.502Z,93.71
2022-12-08T07:54:20.151Z,92.90
2022-12-08T07:55:54.194Z,92.30
2022-12-08T07:57:25.921Z,91.40
2022-12-08T07:58:57.611Z,91.37
2022-12-08T08:00:29.353Z,91.83
2022-12-08T08:02:22.783Z,91.78
2022-12-08T08:03:54.705Z,92.75
2022-12-08T08:05:26.303Z,92.73
2022-12-08T08:06:57.990Z,92.76
2022-12-08T08:08:29.735Z,93.06
2022-12-08T08:10:06.009Z,93.71
2022-12-08T08:11:37.823Z,93.60
2022-12-08T08:13:14.588Z,94.30
2022-12-08T08:14:51.645Z,94.61
2022-12-08T08:16:23.418Z,93.12
2022-12-08T08:17:55.134Z,93.06
2022-12-08T08:19:28.431Z,92.66
2022-12-08T08:21:06.688Z,92.73
2022-12-08T08:22:52.060Z,91.75
2022-12-08T08:24:24.408Z,92.64
2022-12-08T08:25:58.352Z,92.41
2022-12-08T08:27:30.015Z,90.85
2022-12-08T08:29:01.658Z,90.74
2022-12-08T08:30:33.366Z,91.10
2022-12-08T08:32:05.080Z,90.96
2022-12-08T08:33:36.720Z,90.74
2022-12-08T08:35:12.576Z,90.96
2022-12-08T08:36:44.229Z,91.02
2022-12-08T08:38:15.914Z,91.19
2022-12-08T08:39:47.637Z,90.76
2022-12-08T08:41:19.265Z,90.38
2022-12-08T08:42:50.894Z,90.92
2022-12-08T08:44:22.559Z,91.30
2022-12-08T08:45:55.187Z,90.80
2022-12-08T08:47:26.811Z,89.59
2022-12-08T08:48:58.492Z,89.48
2022-12-08T08:50:37.212Z,89.93
2022-12-08T08:52:09.276Z,90.84
2022-12-08T08:53:41.060Z,90.36
2022-12-08T08:55:12.696Z,90.52
2022-12-08T08:56:44.310Z,90.63
2022-12-08T08:58:15.974Z,91.30
2022-12-08T08:59:47.592Z,91.88
2022-12-08T09:01:21.041Z,92.16
2022-12-08T09:02:52.737Z,92.14
2022-12-08T09:04:25.631Z,92.76
2022-12-08T09:05:58.827Z,92.88
2022-12-08T09:07:33.211Z,91.76
2022-12-08T09:09:04.939Z,92.04
2022-12-08T09:10:36.619Z,92.04
2022-12-08T09:12:08.552Z,91.71
2022-12-08T09:13:42.463Z,91.70
2022-12-08T09:15:14.287Z,91.72
2022-12-08T09:16:46.114Z,91.28
2022-12-08T09:18:17.829Z,91.76
2022-12-08T09:19:49.488Z,92.23
2022-12-08T09:21:23.749Z,92.37
2022-12-08T09:22:55.412Z,91.48
2022-12-08T09:24:27.157Z,90.64
2022-12-08T09:25:58.821Z,91.31
2022-12-08T09:27:31.157Z,91.53
2022-12-08T09:29:05.626Z,91.35
2022-12-08T09:30:40.113Z,89.60
2022-12-08T09:32:11.758Z,88.86
2022-12-08T09:33:43.498Z,88.79
2022-12-08T09:35:15.708Z,89.04
2022-12-08T09:36:48.788Z,88.03
2022-12-08T09:38:20.448Z,87.97
2022-12-08T09:39:52.220Z,89.13
2022-12-08T09:41:38.814Z,88.96
2022-12-08T09:43:22.952Z,89.63
2022-12-08T09:44:57.330Z,87.36
2022-12-08T09:46:29.763Z,89.17
2022-12-08T09:48:06.941Z,87.46
2022-12-08T09:49:47.610Z,87.30
2022-12-08T09:51:19.411Z,86.85
2022-12-08T09:53:02.441Z,87.10
2022-12-08T09:54:35.169Z,87.36
2022-12-08T09:56:10.303Z,87.10
2022-12-08T09:57:45.141Z,86.90
2022-12-08T09:59:24.161Z,87.71
2022-12-08T10:00:55.966Z,87.80
2022-12-08T10:02:29.069Z,88.23
2022-12-08T10:04:00.784Z,87.31
2022-12-08T10:05:32.482Z,87.03
2022-12-08T10:07:05.581Z,87.70
2022-12-08T10:08:41.939Z,87.50
2022-12-08T10:10:21.478Z,87.62
2022-12-08T10:11:55.866Z,87.41
2022-12-08T10:13:32.140Z,86.95
2022-12-08T10:15:11.602Z,85.86
2022-12-08T10:16:48.357Z,84.86
2022-12-08T10:18:23.286Z,82.52
2022-12-08T10:19:57.999Z,83.53
2022-12-08T10:21:29.713Z,82.86
2022-12-08T10:23:07.615Z,84.33
2022-12-08T10:24:42.801Z,83.96
2022-12-08T10:26:20.288Z,83.14
2022-12-08T10:27:53.939Z,84.83
2022-12-08T10:29:28.992Z,83.67
2022-12-08T10:31:02.391Z,83.84
2022-12-08T10:32:35.138Z,85.13
2022-12-08T10:34:14.789Z,83.64
2022-12-08T10:35:47.525Z,82.74
2022-12-08T10:37:19.313Z,81.65
2022-12-08T10:38:51.169Z,83.88
2022-12-08T10:40:29.428Z,85.32
2022-12-08T10:42:03.242Z,83.83
2022-12-08T10:43:36.396Z,85.28
2022-12-08T10:45:21.977Z,83.68
2022-12-08T10:46:53.903Z,83.68
2022-12-08T10:48:27.813Z,83.81
2022-12-08T10:50:07.805Z,83.34
2022-12-08T10:51:42.792Z,84.31
2022-12-08T10:53:15.630Z,84.19
2022-12-08T10:54:49.818Z,82.93
2022-12-08T10:56:28.815Z,84.68
2022-12-08T10:58:02.907Z,86.33
2022-12-08T10:59:34.736Z,85.89
2022-12-08T11:01:13.498Z,86.34
2022-12-08T11:02:56.799Z,86.96
2022-12-08T11:04:31.986Z,86.50
2022-12-08T11:06:12.034Z,85.93
2022-12-08T11:07:46.995Z,85.50
2022-12-08T11:09:24.325Z,86.13
2022-12-08T11:10:55.978Z,86.60
2022-12-08T11:12:30.028Z,86.92
2022-12-08T11:14:01.682Z,84.91
2022-12-08T11:15:36.468Z,84.66
2022-12-08T11:17:09.300Z,85.10
2022-12-08T11:18:42.082Z,84.11
2022-12-08T11:20:21.153Z,84.86
2022-12-08T11:21:52.802Z,83.45
2022-12-08T11:23:25.314Z,81.91
2022-12-08T11:24:58.587Z,81.09
2022-12-08T11:26:34.492Z,81.51
2022-12-08T11:28:10.494Z,81.49
2022-12-08T11:29:42.106Z,80.27
2022-12-08T11:31:21.047Z,80.31
2022-12-08T11:32:54.208Z,81.61
2022-12-08T11:34:30.605Z,84.70
2022-12-08T11:36:03.770Z,85.53
2022-12-08T11:37:37.601Z,85.55
2022-12-08T11:39:09.614Z,84.88
2022-12-08T11:40:42.441Z,84.19
2022-12-08T11:42:14.782Z,85.00
2022-12-08T11:43:50.764Z,84.90
2022-12-08T11:45:24.771Z,84.42
2022-12-08T11:46:59.739Z,83.62
2022-12-08T11:48:33.958Z,83.64
2022-12-08T11:50:19.493Z,82.76
2022-12-08T11:52:27.951Z,81.27
2022-12-08T11:54:41.508Z,80.37
2022-12-08T11:56:16.341Z,82.26
2022-12-08T12:01:59.781Z,75.84
2022-12-08T12:03:33.912Z,76.03
2022-12-08T12:05:07.993Z,76.73
2022-12-08T12:07:06.814Z,77.64
2022-12-08T12:08:44.303Z,77.53
2022-12-08T12:10:34.441Z,78.65
2022-12-08T12:12:16.672Z,77.92
2022-12-08T12:13:56.168Z,78.32
2022-12-08T12:15:55.333Z,76.08
2022-12-08T12:17:43.097Z,75.15
2022-12-08T12:19:15.535Z,75.62
2022-12-08T12:20:49.873Z,73.49
2022-12-08T12:22:21.791Z,71.27
2022-12-08T12:23:54.384Z,68.88
2022-12-08T12:25:26.092Z,69.27
2022-12-08T12:27:00.301Z,70.35
2022-12-08T12:28:40.037Z,72.51
2022-12-08T12:30:18.753Z,71.72
2022-12-08T12:31:52.952Z,72.99
2022-12-08T12:33:24.560Z,71.38
2022-12-08T12:34:57.247Z,72.10
2022-12-08T12:36:29.018Z,72.27
2022-12-08T12:38:02.729Z,73.27
2022-12-08T12:39:44.304Z,74.60
2022-12-08T12:41:18.709Z,72.61
2022-12-08T12:43:12.577Z,70.98
2022-12-08T12:44:44.293Z,73.34
2022-12-08T12:46:38.540Z,72.19
2022-12-08T12:48:21.489Z,71.79
2022-12-08T12:51:18.193Z,71.80
2022-12-08T12:52:50.071Z,69.30
2022-12-08T12:54:22.362Z,69.66
2022-12-08T12:55:54.995Z,72.53
2022-12-08T12:57:35.400Z,71.85
2022-12-08T12:59:36.139Z,70.78
2022-12-08T13:01:56.729Z,70.01
2022-12-08T13:03:29.770Z,69.47
2022-12-08T13:05:03.460Z,71.29
2022-12-08T13:06:37.728Z,69.93
2022-12-08T13:08:19.425Z,70.99
2022-12-08T13:09:59.052Z,68.73
2022-12-08T13:11:30.802Z,70.42
2022-12-08T13:13:07.929Z,72.01
2022-12-08T13:14:46.446Z,69.50
2022-12-08T13:16:24.336Z,70.23
2022-12-08T13:17:56.031Z,69.61
2022-12-08T13:19:31.295Z,67.71
2022-12-08T13:21:04.366Z,67.30
2022-12-08T13:23:13.463Z,69.63
2022-12-08T13:24:46.279Z,71.30
2022-12-08T13:26:19.720Z,68.82
2022-12-08T13:27:54.295Z,70.06
2022-12-08T13:29:27.252Z,68.71
2022-12-08T13:30:59.449Z,69.87
2022-12-08T13:33:17.113Z,71.35
2022-12-08T13:34:49.842Z,70.36
2022-12-08T13:36:22.391Z,70.88
2022-12-08T13:37:55.395Z,69.42
2022-12-08T13:39:29.374Z,69.17
2022-12-08T13:41:01.695Z,70.24
2022-12-08T13:42:36.095Z,68.20
2022-12-08T13:48:30.267Z,69.32
2022-12-08T13:54:45.447Z,69.84
2022-12-08T13:57:32.874Z,70.63
2022-12-08T13:59:08.907Z,70.41
2022-12-08T14:00:40.564Z,69.48
2022-12-08T14:02:16.491Z,70.58
2022-12-08T14:04:12.824Z,70.68
2022-12-08T14:06:11.569Z,71.38
2022-12-08T14:07:35.223Z,70.40
2022-12-08T14:09:11.015Z,71.44
2022-12-08T14:10:43.133Z,71.78
2022-12-08T14:12:18.129Z,71.01
2022-12-08T14:13:49.765Z,70.43
2022-12-08T14:15:21.613Z,70.78
2022-12-08T14:16:54.112Z,70.02
2022-12-08T14:18:27.534Z,71.30
2022-12-08T14:20:00.127Z,70.64
2022-12-08T14:21:36.159Z,71.35
2022-12-08T14:23:10.474Z,71.65
2022-12-08T14:24:44.449Z,71.03
2022-12-08T14:26:16.131Z,72.92
2022-12-08T14:27:47.796Z,71.76
2022-12-08T14:29:41.171Z,70.79
2022-12-08T14:31:14.575Z,72.39
2022-12-08T14:32:48.104Z,73.32
2022-12-08T14:34:56.308Z,71.81
2022-12-08T14:36:29.031Z,73.24
2022-12-08T14:38:02.823Z,71.18
2022-12-08T14:39:34.542Z,70.90
2022-12-08T14:41:06.790Z,72.21
2022-12-08T14:42:42.736Z,72.77
2022-12-08T14:44:21.278Z,72.40
2022-12-08T14:46:01.421Z,73.44
2022-12-08T14:47:33.998Z,74.19
2022-12-08T14:49:05.633Z,71.50
2022-12-08T14:50:41.796Z,73.88
2022-12-08T14:52:13.509Z,74.40
2022-12-08T14:53:47.549Z,75.99
2022-12-08T14:55:19.487Z,73.22
2022-12-08T14:56:51.873Z,75.01
2022-12-08T14:58:27.834Z,74.48
2022-12-08T15:00:09.695Z,74.52
2022-12-08T15:01:44.404Z,75.17
2022-12-08T15:03:16.160Z,75.31
2022-12-08T15:04:48.734Z,73.65
2022-12-08T15:06:20.766Z,75.62
2022-12-08T15:07:53.478Z,76.32
2022-12-08T15:09:31.231Z,74.02
2022-12-08T15:11:25.250Z,74.28
2022-12-08T15:12:58.475Z,74.75
2022-12-08T15:14:31.549Z,75.54
2022-12-08T15:16:18.266Z,75.88
2022-12-08T15:17:51.563Z,75.05
2022-12-08T15:19:30.446Z,74.29
2022-12-08T15:21:02.982Z,74.90
2022-12-08T15:22:34.677Z,74.91
2022-12-08T15:24:06.460Z,76.11
2022-12-08T15:25:39.463Z,77.32
2022-12-08T15:27:11.695Z,73.41
2022-12-08T15:28:43.341Z,74.47
2022-12-08T15:30:15.596Z,76.40
2022-12-08T15:31:47.388Z,76.87
2022-12-08T15:33:19.458Z,75.78
2022-12-08T15:34:51.136Z,76.08
2022-12-08T15:36:22.888Z,74.97
2022-12-08T15:37:54.596Z,75.42
2022-12-08T15:39:32.638Z,76.43
2022-12-08T15:41:09.058Z,76.56
2022-12-08T15:42:44.742Z,77.67
2022-12-08T15:44:16.419Z,77.47
2022-12-08T15:45:58.461Z,76.58
2022-12-08T15:47:34.068Z,76.14
2022-12-08T15:49:05.708Z,76.46
2022-12-08T15:50:37.330Z,77.39
2022-12-08T15:52:12.696Z,77.87
2022-12-08T15:53:44.297Z,77.10
2022-12-08T15:55:16.481Z,76.39
2022-12-08T15:57:17.860Z,77.10
2022-12-08T15:58:53.624Z,77.93
2022-12-08T16:02:22.888Z,78.09
2022-12-08T16:06:20.134Z,78.78
2022-12-08T16:07:39.511Z,77.99
2022-12-08T16:09:15.237Z,78.11
2022-12-08T16:11:29.156Z,78.26
2022-12-08T16:13:55.430Z,78.72
2022-12-08T16:16:43.377Z,77.76
2022-12-08T16:18:23.147Z,77.03
2022-12-08T16:19:54.940Z,76.24
2022-12-08T16:22:12.114Z,76.67
2022-12-08T16:23:41.630Z,76.64
2022-12-08T16:25:22.441Z,76.45
2022-12-08T16:28:55.050Z,77.15
2022-12-08T16:30:26.894Z,76.66
2022-12-08T16:31:58.704Z,76.28
2022-12-08T16:33:30.458Z,75.91
2022-12-08T16:35:02.315Z,75.43
2022-12-08T16:36:34.093Z,75.79
2022-12-08T16:38:05.849Z,76.08
2022-12-08T16:39:42.353Z,77.36
2022-12-08T16:41:35.643Z,77.16
2022-12-08T16:43:07.480Z,77.56
2022-12-08T16:44:41.994Z,78.77
2022-12-08T16:46:31.773Z,77.51
2022-12-08T16:48:04.139Z,78.89
2022-12-08T16:49:37.002Z,78.09
2022-12-08T16:51:11.392Z,78.60
2022-12-08T16:52:43.080Z,79.89
2022-12-08T16:54:14.718Z,79.01
2022-12-08T16:55:47.099Z,79.46
2022-12-08T16:57:18.739Z,78.14
2022-12-08T16:58:50.422Z,78.39
2022-12-08T17:00:24.457Z,79.32
2022-12-08T17:01:59.213Z,80.19
2022-12-08T17:03:31.310Z,80.48
2022-12-08T17:05:03.255Z,78.68
2022-12-08T17:06:34.941Z,79.61
2022-12-08T17:08:06.956Z,79.66
2022-12-08T17:09:38.710Z,80.92
2022-12-08T17:11:12.616Z,80.67
2022-12-08T17:12:44.234Z,80.62
2022-12-08T17:14:15.863Z,80.64
2022-12-08T17:15:48.957Z,80.46
2022-12-08T17:17:20.619Z,80.25
2022-12-08T17:18:53.511Z,80.39
2022-12-08T17:20:27.051Z,81.39
2022-12-08T17:21:58.848Z,81.43
2022-12-08T17:23:33.324Z,83.31
2022-12-08T17:25:05.747Z,82.20
2022-12-08T17:26:37.452Z,82.51
2022-12-08T17:28:09.137Z,82.81
2022-12-08T17:29:43.264Z,83.08
2022-12-08T17:31:16.521Z,82.42
2022-12-08T17:32:48.443Z,82.27
2022-12-08T17:34:20.124Z,80.86
2022-12-08T17:35:52.806Z,83.02
2022-12-08T17:37:26.721Z,81.63
2022-12-08T17:38:58.999Z,82.55
2022-12-08T17:40:30.626Z,81.36
2022-12-08T17:42:04.208Z,82.55
2022-12-08T17:43:36.013Z,81.87
2022-12-08T17:45:08.750Z,82.51
2022-12-08T17:46:49.114Z,82.34
2022-12-08T17:48:24.015Z,83.41
2022-12-08T17:49:56.370Z,83.75
2022-12-08T17:51:28.062Z,83.03
2022-12-08T17:53:02.838Z,82.78
2022-12-08T17:54:35.810Z,82.96
2022-12-08T17:56:13.271Z,83.06
2022-12-08T17:57:44.912Z,82.76
2022-12-08T17:59:16.641Z,82.72
2022-12-08T18:00:48.389Z,83.23
2022-12-08T18:02:21.455Z,81.73
2022-12-08T18:03:53.134Z,83.53
2022-12-08T18:05:24.802Z,81.52
2022-12-08T18:06:59.346Z,83.97
2022-12-08T18:08:31.019Z,83.71
2022-12-08T18:10:02.962Z,82.93
2022-12-08T18:11:34.753Z,82.87
2022-12-08T18:13:06.596Z,83.70
2022-12-08T18:14:38.279Z,82.86
2022-12-08T18:16:10.262Z,83.74
2022-12-08T18:17:43.246Z,82.52
2022-12-08T18:19:15.012Z,83.57
2022-12-08T18:20:46.748Z,82.50
2022-12-08T18:22:18.448Z,82.03
2022-12-08T18:23:50.366Z,83.97
2022-12-08T18:25:22.014Z,83.89
2022-12-08T18:26:55.137Z,83.90
2022-12-08T18:28:26.788Z,83.57
2022-12-08T18:29:58.428Z,83.18
2022-12-08T18:31:30.113Z,83.53
2022-12-08T18:33:04.834Z,83.29
2022-12-08T18:34:36.481Z,83.11
2022-12-08T18:36:09.237Z,82.15
2022-12-08T18:37:40.995Z,82.04
2022-12-08T18:39:21.247Z,84.01
2022-12-08T18:40:52.965Z,83.08
2022-12-08T18:42:24.681Z,83.55
2022-12-08T18:43:57.131Z,83.83
2022-12-08T18:45:28.842Z,83.75
2022-12-08T18:47:00.494Z,83.34
2022-12-08T18:48:34.095Z,82.94
2022-12-08T18:50:07.719Z,83.13
2022-12-08T18:51:39.542Z,83.58
2022-12-08T18:53:11.177Z,83.45
2022-12-08T18:55:05.191Z,82.56
2022-12-08T18:56:37.269Z,82.21
2022-12-08T18:58:10.849Z,82.51
2022-12-08T18:59:44.051Z,82.36
2022-12-08T19:01:15.898Z,83.03
2022-12-08T19:02:47.837Z,83.01
2022-12-08T19:04:28.345Z,83.53
2022-12-08T19:06:03.993Z,84.89
2022-12-08T19:07:35.716Z,84.46
2022-12-08T19:09:07.436Z,84.32
2022-12-08T19:10:39.190Z,83.03
2022-12-08T19:12:13.019Z,82.64
2022-12-08T19:13:44.643Z,83.25
2022-12-08T19:15:16.332Z,83.39
2022-12-08T19:16:47.953Z,84.01
2022-12-08T19:18:19.595Z,82.93
2022-12-08T19:19:52.580Z,82.81
2022-12-08T19:21:24.757Z,83.46
2022-12-08T19:22:56.411Z,82.67
2022-12-08T19:24:28.179Z,83.13
2022-12-08T19:25:59.809Z,82.27
2022-12-08T19:27:34.069Z,82.69
2022-12-08T19:29:05.832Z,83.47
2022-12-08T19:30:40.244Z,83.24
2022-12-08T19:32:12.103Z,83.70
2022-12-08T19:33:43.766Z,83.44
2022-12-08T19:35:19.246Z,83.16
2022-12-08T19:36:50.943Z,84.14
2022-12-08T19:38:25.346Z,84.43
2022-12-08T19:40:15.881Z,83.57
2022-12-08T19:42:06.073Z,83.91
2022-12-08T19:43:56.514Z,84.14
2022-12-08T19:45:28.285Z,84.32
2022-12-08T19:47:00.193Z,84.34
2022-12-08T19:48:31.950Z,83.35
2022-12-08T19:50:22.389Z,83.66
2022-12-08T19:51:55.422Z,84.16
2022-12-08T19:53:27.132Z,83.38
2022-12-08T19:55:01.979Z,84.55
2022-12-08T19:56:33.734Z,84.02
2022-12-08T19:58:05.811Z,84.49
2022-12-08T19:59:38.049Z,83.69
2022-12-08T20:01:09.789Z,83.85
2022-12-08T20:02:41.674Z,84.50
2022-12-08T20:04:13.663Z,83.55
2022-12-08T20:05:45.639Z,83.95
2022-12-08T20:07:18.681Z,83.21
2022-12-08T20:08:50.995Z,83.75
2022-12-08T20:10:33.606Z,83.28
2022-12-08T20:12:06.089Z,83.46
2022-12-08T20:13:40.849Z,83.90
2022-12-08T20:15:12.577Z,83.59
2022-12-08T20:16:44.351Z,83.70
2022-12-08T20:18:16.270Z,83.69
2022-12-08T20:19:48.011Z,84.14
2022-12-08T20:21:20.787Z,83.12
2022-12-08T20:22:53.807Z,83.61
2022-12-08T20:24:25.750Z,82.74
2022-12-08T20:25:57.487Z,84.50
2022-12-08T20:27:29.256Z,83.81
2022-12-08T20:29:00.968Z,83.88
2022-12-08T20:30:35.624Z,84.08
2022-12-08T20:32:07.409Z,83.95
2022-12-08T20:33:39.180Z,82.49
2022-12-08T20:35:10.889Z,82.49
2022-12-08T20:36:42.829Z,82.98
2022-12-08T20:38:16.113Z,83.42
2022-12-08T20:39:47.841Z,82.60
2022-12-08T20:41:19.613Z,83.37
2022-12-08T20:42:52.181Z,82.61
2022-12-08T20:44:23.824Z,83.01